createdAt,value
2023-03-30T00:01:41.804Z,11.63
2023-03-30T00:04:17.690Z,14.48
2023-03-30T00:06:46.279Z,14.18
2023-03-30T00:09:19.527Z,11.52
2023-03-30T00:11:48.068Z,10.35
2023-03-30T00:14:24.548Z,16.73
2023-03-30T00:16:53.586Z,11.40
2023-03-30T00:19:27.473Z,11.93
2023-03-30T00:21:54.669Z,12.52
2023-03-30T00:24:28.527Z,15.43
2023-03-30T00:27:02.577Z,10.93
2023-03-30T00:29:36.591Z,19.30
2023-03-30T00:32:10.545Z,11.32
2023-03-30T00:34:44.187Z,15.57
2023-03-30T00:37:18.532Z,10.20
2023-03-30T00:39:52.556Z,10.45
2023-03-30T00:42:28.547Z,15.30
2023-03-30T00:45:27.525Z,12.70
2023-03-30T00:48:09.561Z,12.98
2023-03-30T00:50:52.347Z,17.52
2023-03-30T00:53:36.535Z,18.00
2023-03-30T00:56:07.805Z,12.27
2023-03-30T00:58:43.519Z,10.95
2023-03-30T01:01:15.109Z,12.85
2023-03-30T01:03:54.580Z,14.27
2023-03-30T01:06:38.557Z,15.00
2023-03-30T01:09:07.203Z,13.93
2023-03-30T01:11:40.509Z,13.45
2023-03-30T01:14:11.905Z,19.17
2023-03-30T01:17:08.548Z,14.57
2023-03-30T01:20:22.558Z,12.35
2023-03-30T01:23:33.554Z,14.43
2023-03-30T01:26:47.135Z,16.45
2023-03-30T01:30:07.570Z,17.60
2023-03-30T01:33:31.504Z,9.77
2023-03-30T01:36:41.533Z,12.85
2023-03-30T01:39:43.708Z,14.32
2023-03-30T01:42:45.591Z,14.32
2023-03-30T01:45:28.540Z,18.00
2023-03-30T01:48:01.713Z,15.93
2023-03-30T01:50:51.554Z,15.48
2023-03-30T01:53:43.937Z,16.77
2023-03-30T01:56:28.595Z,14.27
2023-03-30T01:59:14.508Z,14.27
2023-03-30T02:01:50.670Z,16.17
2023-03-30T02:04:23.725Z,14.60
2023-03-30T02:07:07.571Z,12.82
2023-03-30T02:09:38.608Z,18.15
2023-03-30T02:12:14.537Z,19.58
2023-03-30T02:14:43.313Z,15.05
2023-03-30T02:17:26.867Z,10.57
2023-03-30T02:20:03.557Z,12.40
2023-03-30T02:22:32.499Z,12.90
2023-03-30T02:25:07.554Z,14.93
2023-03-30T02:27:35.291Z,10.52
2023-03-30T02:30:02.516Z,18.17
2023-03-30T02:32:47.602Z,14.63
2023-03-30T02:36:04.604Z,16.13
2023-03-30T02:38:51.675Z,21.42
2023-03-30T02:41:48.539Z,14.07
2023-03-30T02:44:43.710Z,12.85
2023-03-30T02:48:08.628Z,15.98
2023-03-30T02:51:07.141Z,17.73
2023-03-30T02:53:53.607Z,17.33
2023-03-30T02:56:38.000Z,11.52
2023-03-30T02:59:20.546Z,16.17
2023-03-30T03:02:13.624Z,21.20
2023-03-30T03:04:50.548Z,12.27
2023-03-30T03:07:20.971Z,11.77
2023-03-30T03:09:54.578Z,22.38
2023-03-30T03:12:28.579Z,12.32
2023-03-30T03:15:02.535Z,19.17
2023-03-30T03:17:35.016Z,18.08
2023-03-30T03:20:11.580Z,16.55
2023-03-30T03:22:45.564Z,10.65
2023-03-30T03:25:19.578Z,10.27
2023-03-30T03:27:47.496Z,16.75
2023-03-30T03:30:21.606Z,12.32
2023-03-30T03:32:57.616Z,11.73
2023-03-30T03:35:37.589Z,16.20
2023-03-30T03:38:11.630Z,13.80
2023-03-30T03:40:38.976Z,15.52
2023-03-30T03:43:12.550Z,18.08
2023-03-30T03:45:46.593Z,19.73
2023-03-30T03:48:16.271Z,16.70
2023-03-30T03:50:50.577Z,22.98
2023-03-30T03:53:17.768Z,16.92
2023-03-30T03:55:53.588Z,14.27
2023-03-30T03:58:28.583Z,16.00
2023-03-30T04:03:42.588Z,15.65
2023-03-30T04:06:16.559Z,19.98
2023-03-30T04:08:45.766Z,15.07
2023-03-30T04:11:13.496Z,14.57
2023-03-30T04:13:48.585Z,18.45
2023-03-30T04:16:22.647Z,16.98
2023-03-30T04:18:56.706Z,19.27
2023-03-30T04:21:31.665Z,20.63
2023-03-30T04:24:05.605Z,22.48
2023-03-30T04:26:33.169Z,19.67
2023-03-30T04:29:00.476Z,14.35
2023-03-30T04:31:41.573Z,20.95
2023-03-30T04:34:16.123Z,21.75
2023-03-30T04:36:56.564Z,16.75
2023-03-30T04:39:30.582Z,13.23
2023-03-30T04:41:57.991Z,21.33
2023-03-30T04:44:31.611Z,19.08
2023-03-30T04:47:05.612Z,11.85
2023-03-30T04:49:40.568Z,14.07
2023-03-30T04:52:07.649Z,17.15
2023-03-30T04:54:41.659Z,13.15
2023-03-30T04:57:08.840Z,16.50
2023-03-30T04:59:42.723Z,14.07
2023-03-30T05:02:12.165Z,20.67
2023-03-30T05:04:46.681Z,18.05
2023-03-30T05:07:14.842Z,16.30
2023-03-30T05:09:48.583Z,15.20
2023-03-30T05:12:16.906Z,15.20
2023-03-30T05:14:50.613Z,20.00
2023-03-30T05:17:24.611Z,16.70
2023-03-30T05:19:58.640Z,16.25
2023-03-30T05:22:26.318Z,13.32
2023-03-30T05:24:59.595Z,18.63
2023-03-30T05:27:27.227Z,21.85
2023-03-30T05:30:00.634Z,14.18
2023-03-30T05:32:34.610Z,18.20
2023-03-30T05:35:15.672Z,18.40
2023-03-30T05:37:42.798Z,16.48
2023-03-30T05:40:17.596Z,22.33
2023-03-30T05:42:44.718Z,14.00
2023-03-30T05:45:18.917Z,16.48
2023-03-30T05:47:46.210Z,12.05
2023-03-30T05:50:19.628Z,20.75
2023-03-30T05:52:53.637Z,20.13
2023-03-30T05:55:20.726Z,18.63
2023-03-30T05:57:47.898Z,21.02
2023-03-30T06:00:22.641Z,16.63
2023-03-30T06:02:50.059Z,16.98
2023-03-30T06:05:23.608Z,19.17
2023-03-30T06:07:50.701Z,13.73
2023-03-30T06:10:24.613Z,12.73
2023-03-30T06:12:58.599Z,17.60
2023-03-30T06:15:33.739Z,11.30
2023-03-30T06:18:10.728Z,19.90
2023-03-30T06:20:38.087Z,15.77
2023-03-30T06:23:12.587Z,12.65
2023-03-30T06:25:39.883Z,17.35
2023-03-30T06:28:14.605Z,19.05
2023-03-30T06:30:48.599Z,12.68
2023-03-30T06:33:25.634Z,19.25
2023-03-30T06:36:05.598Z,19.60
2023-03-30T06:38:32.813Z,16.60
2023-03-30T06:41:14.611Z,13.38
2023-03-30T06:43:48.266Z,17.30
2023-03-30T06:46:22.676Z,14.05
2023-03-30T06:48:49.944Z,8.60
2023-03-30T06:51:24.664Z,14.85
2023-03-30T06:53:51.822Z,11.27
2023-03-30T06:56:25.590Z,9.93
2023-03-30T06:58:52.973Z,7.65
2023-03-30T07:01:27.662Z,7.88
2023-03-30T07:04:01.662Z,10.60
2023-03-30T07:06:35.617Z,9.10
2023-03-30T07:09:03.385Z,5.82
2023-03-30T07:11:37.651Z,8.45
2023-03-30T07:14:05.541Z,10.68
2023-03-30T07:16:39.736Z,5.30
2023-03-30T07:19:06.999Z,6.05
2023-03-30T07:21:40.613Z,6.75
2023-03-30T07:24:14.617Z,9.10
2023-03-30T07:26:48.683Z,3.83
2023-03-30T07:29:22.650Z,4.75
2023-03-30T07:31:49.850Z,5.72
2023-03-30T07:34:24.657Z,6.63
2023-03-30T07:36:58.845Z,4.00
2023-03-30T07:39:33.978Z,4.97
2023-03-30T07:42:08.650Z,4.50
2023-03-30T07:44:35.793Z,2.90
2023-03-30T07:47:13.593Z,8.05
2023-03-30T07:49:49.873Z,5.45
2023-03-30T07:52:23.622Z,3.47
2023-03-30T07:54:57.593Z,3.30
2023-03-30T07:57:31.725Z,3.20
2023-03-30T08:00:05.616Z,4.50
2023-03-30T08:02:32.829Z,3.88
2023-03-30T08:05:06.745Z,4.10
2023-03-30T08:07:35.587Z,2.83
2023-03-30T08:10:09.657Z,1.73
2023-03-30T08:12:37.939Z,6.15
2023-03-30T08:15:12.658Z,2.28
2023-03-30T08:17:47.727Z,2.10
2023-03-30T08:20:22.786Z,1.95
2023-03-30T08:22:56.646Z,2.60
2023-03-30T08:25:30.934Z,3.22
2023-03-30T08:28:04.637Z,1.58
2023-03-30T08:30:39.648Z,4.38
2023-03-30T08:33:15.662Z,3.88
2023-03-30T08:35:56.649Z,5.43
2023-03-30T08:38:24.849Z,3.30
2023-03-30T08:40:58.647Z,5.13
2023-03-30T08:43:47.597Z,4.90
2023-03-30T08:46:25.676Z,4.30
2023-03-30T08:49:01.616Z,2.88
2023-03-30T08:51:38.694Z,5.37
2023-03-30T08:54:10.739Z,3.33
2023-03-30T08:57:09.673Z,9.68
2023-03-30T09:00:13.612Z,2.23
2023-03-30T09:02:58.806Z,4.65
2023-03-30T09:05:38.859Z,3.97
2023-03-30T09:08:26.684Z,4.22
2023-03-30T09:10:59.878Z,3.25
2023-03-30T09:13:44.667Z,6.93
2023-03-30T09:16:38.514Z,3.88
2023-03-30T09:19:32.654Z,3.28
2023-03-30T09:22:06.059Z,4.55
2023-03-30T09:24:39.707Z,1.50
2023-03-30T09:27:45.614Z,2.53
2023-03-30T09:30:28.684Z,4.00
2023-03-30T09:33:20.656Z,6.68
2023-03-30T09:36:15.669Z,2.85
2023-03-30T09:38:51.742Z,5.85
2023-03-30T09:41:46.997Z,4.43
2023-03-30T09:44:27.364Z,5.55
2023-03-30T09:47:06.670Z,5.78
2023-03-30T09:49:40.325Z,6.43
2023-03-30T09:52:26.666Z,7.13
2023-03-30T09:54:53.874Z,5.40
2023-03-30T09:57:36.028Z,8.75
2023-03-30T10:00:27.768Z,9.23
2023-03-30T10:03:10.715Z,3.85
2023-03-30T10:05:39.194Z,5.05
2023-03-30T10:08:26.624Z,3.45
2023-03-30T10:10:56.917Z,7.18
2023-03-30T10:13:47.714Z,5.13
2023-03-30T10:16:33.489Z,4.82
2023-03-30T10:19:11.651Z,4.93
2023-03-30T10:21:47.700Z,4.00
2023-03-30T10:24:21.686Z,5.00
2023-03-30T10:27:06.698Z,4.63
2023-03-30T10:29:34.805Z,8.25
2023-03-30T10:32:38.697Z,4.57
2023-03-30T10:35:23.687Z,4.43
2023-03-30T10:37:56.611Z,6.13
2023-03-30T10:40:43.659Z,6.80
2023-03-30T10:43:30.570Z,4.38
2023-03-30T10:46:19.394Z,4.22
2023-03-30T10:49:20.282Z,9.55
2023-03-30T10:52:15.672Z,5.50
2023-03-30T10:55:20.695Z,6.20
2023-03-30T10:58:25.683Z,4.82
2023-03-30T11:01:10.633Z,4.85
2023-03-30T11:03:48.700Z,3.08
2023-03-30T11:06:37.659Z,2.88
2023-03-30T11:09:14.895Z,2.10
2023-03-30T11:11:57.693Z,6.82
2023-03-30T11:14:53.681Z,6.45
2023-03-30T11:17:35.673Z,5.70
2023-03-30T11:20:40.689Z,4.40
2023-03-30T11:24:01.721Z,4.25
2023-03-30T11:27:14.713Z,6.15
2023-03-30T11:30:00.816Z,5.00
2023-03-30T11:32:59.809Z,5.47
2023-03-30T11:36:18.812Z,5.68
2023-03-30T11:39:25.070Z,2.95
2023-03-30T11:42:11.642Z,6.90
2023-03-30T11:44:45.720Z,5.85
2023-03-30T11:47:49.772Z,6.30
2023-03-30T11:51:08.668Z,7.65
2023-03-30T11:53:55.658Z,4.78
2023-03-30T11:56:48.682Z,7.63
2023-03-30T11:59:48.158Z,7.72
2023-03-30T12:03:14.806Z,8.82
2023-03-30T12:06:14.709Z,7.65
2023-03-30T12:09:32.692Z,9.80
2023-03-30T12:12:17.044Z,7.25
2023-03-30T12:15:28.651Z,5.38
2023-03-30T12:18:46.730Z,6.55
2023-03-30T12:21:33.583Z,7.07
2023-03-30T12:24:23.712Z,4.38
2023-03-30T12:27:05.469Z,5.47
2023-03-30T12:32:33.671Z,7.88
2023-03-30T12:36:03.046Z,3.83
2023-03-30T12:38:52.660Z,7.28
2023-03-30T12:41:29.724Z,4.20
2023-03-30T12:44:42.873Z,4.43
2023-03-30T12:47:33.818Z,5.97
2023-03-30T12:50:37.777Z,7.38
2023-03-30T12:53:25.780Z,3.67
2023-03-30T12:56:44.705Z,5.03
2023-03-30T12:59:48.665Z,7.03
2023-03-30T13:03:02.827Z,4.70
2023-03-30T13:05:49.831Z,2.92
2023-03-30T13:08:50.671Z,3.83
2023-03-30T13:11:22.206Z,3.47
2023-03-30T13:14:20.736Z,6.13
2023-03-30T13:16:57.700Z,4.10
2023-03-30T13:19:40.723Z,5.45
2023-03-30T13:22:21.845Z,4.40
2023-03-30T13:25:18.964Z,6.20
2023-03-30T13:27:55.526Z,3.20
2023-03-30T13:30:36.751Z,4.90
2023-03-30T13:33:29.673Z,5.40
2023-03-30T13:36:25.740Z,6.55
2023-03-30T13:39:18.740Z,4.50
2023-03-30T13:41:57.776Z,4.60
2023-03-30T13:45:00.010Z,4.28
2023-03-30T13:48:08.800Z,8.88
2023-03-30T13:50:36.137Z,8.43
2023-03-30T13:53:16.712Z,7.97
2023-03-30T13:55:51.129Z,3.28
2023-03-30T13:58:35.694Z,4.43
2023-03-30T14:01:12.326Z,4.72
2023-03-30T14:03:54.720Z,6.10
2023-03-30T14:06:32.718Z,6.93
2023-03-30T14:09:14.790Z,7.35
2023-03-30T14:11:49.331Z,4.07
2023-03-30T14:14:35.688Z,4.70
2023-03-30T14:17:17.120Z,6.80
2023-03-30T14:20:22.771Z,5.25
2023-03-30T14:22:51.523Z,4.80
2023-03-30T14:25:45.767Z,3.10
2023-03-30T14:28:19.809Z,5.13
2023-03-30T14:31:09.705Z,8.80
2023-03-30T14:33:41.072Z,4.35
2023-03-30T14:36:18.795Z,5.10
2023-03-30T14:38:49.971Z,4.00
2023-03-30T14:41:30.754Z,5.65
2023-03-30T14:44:12.690Z,5.38
2023-03-30T14:46:49.983Z,4.57
2023-03-30T14:49:38.787Z,5.50
2023-03-30T14:52:24.747Z,4.65
2023-03-30T14:55:05.917Z,6.00
2023-03-30T14:57:45.709Z,5.97
2023-03-30T15:00:21.993Z,7.82
2023-03-30T15:03:30.425Z,4.97
2023-03-30T15:06:02.728Z,5.82
2023-03-30T15:08:45.688Z,8.05
2023-03-30T15:11:22.932Z,5.90
2023-03-30T15:14:08.795Z,4.65
2023-03-30T15:16:37.618Z,6.65
2023-03-30T15:19:29.695Z,8.88
2023-03-30T15:22:24.795Z,6.78
2023-03-30T15:25:04.797Z,8.05
2023-03-30T15:27:43.819Z,5.20
2023-03-30T15:30:40.136Z,4.65
2023-03-30T15:33:26.718Z,2.35
2023-03-30T15:36:35.762Z,2.47
2023-03-30T15:39:05.648Z,2.78
2023-03-30T15:42:04.724Z,3.38
2023-03-30T15:44:41.310Z,4.25
2023-03-30T15:47:25.716Z,3.00
2023-03-30T15:49:59.719Z,3.38
2023-03-30T15:52:39.931Z,1.67
2023-03-30T15:55:27.739Z,4.13
2023-03-30T15:58:01.756Z,2.67
2023-03-30T16:00:41.834Z,2.75
2023-03-30T16:03:13.773Z,5.45
2023-03-30T16:05:49.748Z,1.27
2023-03-30T16:08:16.813Z,3.85
2023-03-30T16:10:51.872Z,5.53
2023-03-30T16:13:25.771Z,3.45
2023-03-30T16:15:54.071Z,2.65
2023-03-30T16:18:27.733Z,3.53
2023-03-30T16:20:54.837Z,6.13
2023-03-30T16:23:28.758Z,6.10
2023-03-30T16:25:56.094Z,5.47
2023-03-30T16:28:23.229Z,3.23
2023-03-30T16:31:01.828Z,4.53
2023-03-30T16:33:28.899Z,2.90
2023-03-30T16:36:02.809Z,3.97
2023-03-30T16:38:36.762Z,4.37
2023-03-30T16:41:11.047Z,2.47
2023-03-30T16:43:44.753Z,5.47
2023-03-30T16:46:17.707Z,1.63
2023-03-30T16:48:52.762Z,3.43
2023-03-30T16:51:26.711Z,4.87
2023-03-30T16:54:00.836Z,4.50
2023-03-30T16:56:29.168Z,2.55
2023-03-30T16:59:02.736Z,4.05
2023-03-30T17:01:31.702Z,4.22
2023-03-30T17:04:05.979Z,8.52
2023-03-30T17:06:33.277Z,4.53
2023-03-30T17:09:07.760Z,5.60
2023-03-30T17:11:41.768Z,4.13
2023-03-30T17:14:15.786Z,5.47
2023-03-30T17:16:42.896Z,4.03
2023-03-30T17:19:20.763Z,4.20
2023-03-30T17:21:47.864Z,4.97
2023-03-30T17:24:22.765Z,3.05
2023-03-30T17:26:49.872Z,6.63
2023-03-30T17:29:23.787Z,4.13
2023-03-30T17:31:57.765Z,4.93
2023-03-30T17:34:24.871Z,4.20
2023-03-30T17:37:04.784Z,3.33
2023-03-30T17:39:31.866Z,4.67
2023-03-30T17:42:06.768Z,2.97
2023-03-30T17:44:34.146Z,5.83
2023-03-30T17:47:08.741Z,7.63
2023-03-30T17:49:42.000Z,5.03
2023-03-30T17:52:15.820Z,6.00
2023-03-30T17:54:43.117Z,4.23
2023-03-30T17:57:16.750Z,4.93
2023-03-30T17:59:43.849Z,8.90
2023-03-30T18:02:18.028Z,5.80
2023-03-30T18:04:46.235Z,5.43
2023-03-30T18:07:19.716Z,5.10
2023-03-30T18:09:46.759Z,3.40
2023-03-30T18:12:26.783Z,6.83
2023-03-30T18:14:53.853Z,6.90
2023-03-30T18:17:27.805Z,5.03
2023-03-30T18:20:01.746Z,6.53
2023-03-30T18:22:28.805Z,6.87
2023-03-30T18:25:02.759Z,5.50
2023-03-30T18:27:39.788Z,5.80
2023-03-30T18:30:26.801Z,7.07
2023-03-30T18:33:01.784Z,3.17
2023-03-30T18:35:39.056Z,5.50
2023-03-30T18:38:15.214Z,5.87
2023-03-30T18:40:53.777Z,4.83
2023-03-30T18:43:20.941Z,10.07
2023-03-30T18:45:57.175Z,3.53
2023-03-30T18:48:25.874Z,3.80
2023-03-30T18:51:01.784Z,5.07
2023-03-30T18:53:29.431Z,4.27
2023-03-30T18:56:00.987Z,7.40
2023-03-30T18:58:40.766Z,7.17
2023-03-30T19:01:08.853Z,9.47
2023-03-30T19:03:42.826Z,7.87
2023-03-30T19:06:22.105Z,5.27
2023-03-30T19:08:55.798Z,6.90
2023-03-30T19:11:33.015Z,8.27
2023-03-30T19:14:07.781Z,5.37
2023-03-30T19:16:35.421Z,6.93
2023-03-30T19:19:09.766Z,6.67
2023-03-30T19:21:43.765Z,8.20
2023-03-30T19:24:12.920Z,2.93
2023-03-30T19:26:47.811Z,6.00
2023-03-30T19:29:21.783Z,5.27
2023-03-30T19:31:56.792Z,8.00
2023-03-30T19:34:24.116Z,5.33
2023-03-30T19:36:57.755Z,9.10
2023-03-30T19:39:24.926Z,6.87
2023-03-30T19:41:58.796Z,7.67
2023-03-30T19:44:25.897Z,9.07
2023-03-30T19:46:59.788Z,7.37
2023-03-30T19:49:27.268Z,5.73
2023-03-30T19:52:00.817Z,4.87
2023-03-30T19:54:28.016Z,6.23
2023-03-30T19:57:01.898Z,5.10
2023-03-30T19:59:35.824Z,6.23
2023-03-30T20:02:09.870Z,4.97
2023-03-30T20:04:43.850Z,11.90
2023-03-30T20:07:19.774Z,4.07
2023-03-30T20:09:53.788Z,4.20
2023-03-30T20:12:21.108Z,4.53
2023-03-30T20:14:55.789Z,4.43
2023-03-30T20:17:22.874Z,5.20
2023-03-30T20:19:56.798Z,6.63
2023-03-30T20:22:31.777Z,7.40
2023-03-30T20:25:05.788Z,6.13
2023-03-30T20:27:40.836Z,6.60
2023-03-30T20:30:09.208Z,6.47
2023-03-30T20:32:36.529Z,5.80
2023-03-30T20:35:12.775Z,10.40
2023-03-30T20:37:46.927Z,9.03
2023-03-30T20:40:20.851Z,5.87
2023-03-30T20:42:48.223Z,8.97
2023-03-30T20:45:23.898Z,6.80
2023-03-30T20:47:51.010Z,8.73
2023-03-30T20:50:24.860Z,6.70
2023-03-30T20:52:53.904Z,5.93
2023-03-30T20:55:27.789Z,8.57
2023-03-30T20:57:54.831Z,6.40
2023-03-30T21:00:22.407Z,5.80
2023-03-30T21:02:55.865Z,9.87
2023-03-30T21:05:22.961Z,9.23
2023-03-30T21:07:58.055Z,12.57
2023-03-30T21:10:26.434Z,7.57
2023-03-30T21:13:17.893Z,10.17
2023-03-30T21:15:58.748Z,10.43
2023-03-30T21:18:33.854Z,9.03
2023-03-30T21:21:08.786Z,7.83
2023-03-30T21:23:42.785Z,8.83
2023-03-30T21:26:10.464Z,5.80
2023-03-30T21:28:44.791Z,9.43
2023-03-30T21:31:21.829Z,9.67
2023-03-30T21:33:55.814Z,10.90
2023-03-30T21:36:35.941Z,7.13
2023-03-30T21:39:16.787Z,8.27
2023-03-30T21:41:45.450Z,5.33
2023-03-30T21:44:18.788Z,4.87
2023-03-30T21:46:52.809Z,6.40
2023-03-30T21:49:26.841Z,10.20
2023-03-30T21:51:53.874Z,6.53
2023-03-30T21:54:27.806Z,5.37
2023-03-30T21:57:01.997Z,7.33
2023-03-30T21:59:35.830Z,8.07
2023-03-30T22:02:03.066Z,7.53
2023-03-30T22:04:36.799Z,4.83
2023-03-30T22:07:04.357Z,5.93
2023-03-30T22:09:37.839Z,5.25
2023-03-30T22:12:05.168Z,3.60
2023-03-30T22:14:38.836Z,4.85
2023-03-30T22:17:14.775Z,4.57
2023-03-30T22:19:50.779Z,5.18
2023-03-30T22:22:24.943Z,6.23
2023-03-30T22:24:58.859Z,3.83
2023-03-30T22:27:25.915Z,5.05
2023-03-30T22:29:59.851Z,4.10
2023-03-30T22:32:27.249Z,4.13
2023-03-30T22:35:00.821Z,7.67
2023-03-30T22:37:47.854Z,7.43
2023-03-30T22:40:21.846Z,10.80
2023-03-30T22:42:49.365Z,7.10
2023-03-30T22:45:23.826Z,7.80
2023-03-30T22:47:52.192Z,13.13
2023-03-30T22:50:26.854Z,7.18
2023-03-30T22:52:55.440Z,9.50
2023-03-30T22:55:30.803Z,6.20
2023-03-30T22:57:57.924Z,8.15
2023-03-30T23:00:31.822Z,8.20
2023-03-30T23:02:59.084Z,8.18
2023-03-30T23:05:32.816Z,7.80
2023-03-30T23:08:06.806Z,6.47
2023-03-30T23:10:43.861Z,7.80
2023-03-30T23:13:17.813Z,6.90
2023-03-30T23:15:51.835Z,5.32
2023-03-30T23:18:18.921Z,6.50
2023-03-30T23:20:52.796Z,8.60
2023-03-30T23:23:20.051Z,7.10
2023-03-30T23:25:58.848Z,7.32
2023-03-30T23:28:25.919Z,9.35
2023-03-30T23:30:59.927Z,9.93
2023-03-30T23:33:27.105Z,9.05
2023-03-30T23:36:00.832Z,8.82
2023-03-30T23:38:40.818Z,6.05
2023-03-30T23:41:14.833Z,7.38
2023-03-30T23:43:42.021Z,5.07
2023-03-30T23:46:16.958Z,7.85
2023-03-30T23:48:44.336Z,6.80
2023-03-30T23:51:18.804Z,4.43
2023-03-30T23:53:53.848Z,8.10
2023-03-30T23:56:28.167Z,5.50
2023-03-30T23:58:55.546Z,11.27
